createdAt,value
2023-01-01T00:01:56.580Z,25.13
2023-01-01T00:04:24.477Z,26.40
2023-01-01T00:06:52.462Z,33.73
2023-01-01T00:09:39.113Z,39.63
2023-01-01T00:12:07.488Z,29.27
2023-01-01T00:14:35.417Z,76.70
2023-01-01T00:17:03.492Z,33.93
2023-01-01T00:19:31.462Z,116.17
2023-01-01T00:22:02.140Z,67.07
2023-01-01T00:24:39.237Z,39.17
2023-01-01T00:27:07.152Z,23.03
2023-01-01T00:29:35.095Z,24.10
2023-01-01T00:32:04.030Z,22.37
2023-01-01T00:34:33.435Z,23.73
2023-01-01T00:37:01.288Z,23.07
2023-01-01T00:39:29.184Z,21.70
2023-01-01T00:41:58.396Z,21.03
2023-01-01T00:44:26.235Z,16.60
2023-01-01T00:46:54.070Z,20.33
2023-01-01T00:49:21.980Z,24.90
2023-01-01T00:51:49.864Z,15.23
2023-01-01T00:54:17.729Z,21.17
2023-01-01T00:56:45.629Z,20.03
2023-01-01T00:59:14.851Z,19.07
2023-01-01T01:01:42.763Z,17.70
2023-01-01T01:04:10.868Z,18.40
2023-01-01T01:06:38.713Z,21.23
2023-01-01T01:09:07.156Z,13.07
2023-01-01T01:11:35.160Z,14.80
2023-01-01T01:14:03.115Z,15.83
2023-01-01T01:16:34.807Z,14.73
2023-01-01T01:19:04.574Z,15.60
2023-01-01T01:21:34.571Z,14.03
2023-01-01T01:24:04.851Z,21.60
2023-01-01T01:26:34.451Z,14.50
2023-01-01T01:29:02.491Z,15.30
2023-01-01T01:31:33.361Z,15.23
2023-01-01T01:34:01.423Z,18.70
2023-01-01T01:36:30.043Z,15.47
2023-01-01T01:38:58.042Z,12.13
2023-01-01T01:41:28.975Z,14.13
2023-01-01T01:43:59.787Z,14.23
2023-01-01T01:46:35.835Z,13.37
2023-01-01T01:49:06.867Z,11.67
2023-01-01T01:51:40.475Z,11.50
2023-01-01T01:54:20.695Z,10.73
2023-01-01T01:56:53.716Z,11.70
2023-01-01T01:59:23.797Z,11.80
2023-01-01T02:01:54.153Z,11.20
2023-01-01T02:04:22.631Z,13.47
2023-01-01T02:06:52.715Z,12.70
2023-01-01T02:09:20.842Z,11.20
2023-01-01T02:11:48.672Z,11.20
2023-01-01T02:14:16.601Z,6.57
2023-01-01T02:16:48.042Z,11.50
2023-01-01T02:19:34.809Z,7.70
2023-01-01T02:22:11.231Z,9.63
2023-01-01T02:24:51.003Z,7.10
2023-01-01T02:27:27.307Z,6.40
2023-01-01T02:30:01.607Z,13.37
2023-01-01T02:32:37.163Z,5.70
2023-01-01T02:35:23.329Z,5.53
2023-01-01T02:37:57.080Z,10.93
2023-01-01T02:40:26.078Z,8.70
2023-01-01T02:42:56.419Z,9.47
2023-01-01T02:45:25.925Z,5.63
2023-01-01T02:47:53.759Z,4.57
2023-01-01T02:50:24.881Z,5.33
2023-01-01T02:53:08.807Z,7.90
2023-01-01T02:55:47.555Z,5.87
2023-01-01T02:58:42.351Z,8.37
2023-01-01T03:01:22.296Z,6.10
2023-01-01T03:04:01.824Z,12.77
2023-01-01T03:06:38.524Z,6.93
2023-01-01T03:09:15.672Z,5.87
2023-01-01T03:11:49.993Z,6.77
2023-01-01T03:14:25.899Z,6.97
2023-01-01T03:17:00.329Z,5.77
2023-01-01T03:19:32.812Z,8.80
2023-01-01T03:22:04.792Z,7.03
2023-01-01T03:24:35.440Z,5.53
2023-01-01T03:27:07.086Z,7.43
2023-01-01T03:29:39.802Z,6.47
2023-01-01T03:32:14.281Z,9.13
2023-01-01T03:34:45.749Z,7.73
2023-01-01T03:37:19.903Z,7.63
2023-01-01T03:39:52.263Z,5.77
2023-01-01T03:42:27.538Z,7.37
2023-01-01T03:45:01.568Z,4.70
2023-01-01T03:47:31.469Z,6.50
2023-01-01T03:50:00.658Z,5.57
2023-01-01T03:52:43.102Z,6.20
2023-01-01T03:55:18.065Z,5.83
2023-01-01T03:57:56.533Z,7.73
2023-01-01T04:00:28.174Z,4.90
2023-01-01T04:03:01.371Z,8.30
2023-01-01T04:05:30.665Z,9.40
2023-01-01T04:08:03.031Z,8.90
2023-01-01T04:10:33.369Z,8.27
2023-01-01T04:13:04.879Z,5.63
2023-01-01T04:15:35.899Z,5.40
2023-01-01T04:18:05.394Z,7.33
2023-01-01T04:20:33.822Z,4.90
2023-01-01T04:23:03.093Z,6.53
2023-01-01T04:25:31.027Z,7.80
2023-01-01T04:27:59.606Z,5.07
2023-01-01T04:30:28.259Z,5.73
2023-01-01T04:32:56.193Z,7.20
2023-01-01T04:35:25.424Z,4.47
2023-01-01T04:37:53.274Z,3.43
2023-01-01T04:40:21.358Z,4.50
2023-01-01T04:42:49.152Z,3.47
2023-01-01T04:45:17.942Z,4.53
2023-01-01T04:47:45.900Z,5.90
2023-01-01T04:50:13.783Z,3.97
2023-01-01T04:52:43.071Z,3.47
2023-01-01T04:55:11.272Z,3.60
2023-01-01T04:57:39.132Z,5.73
2023-01-01T05:00:08.210Z,3.60
2023-01-01T05:02:36.231Z,3.30
2023-01-01T05:05:04.538Z,2.27
2023-01-01T05:07:34.174Z,2.77
2023-01-01T05:10:03.441Z,2.83
2023-01-01T05:12:31.304Z,4.70
2023-01-01T05:14:59.154Z,3.30
2023-01-01T05:17:27.112Z,3.00
2023-01-01T05:19:55.015Z,4.07
2023-01-01T05:22:22.904Z,5.47
2023-01-01T05:24:50.789Z,4.57
2023-01-01T05:27:20.028Z,3.37
2023-01-01T05:29:47.861Z,5.57
2023-01-01T05:34:42.560Z,6.70
2023-01-01T05:37:10.533Z,7.50
2023-01-01T05:39:38.463Z,8.33
2023-01-01T05:42:06.396Z,5.23
2023-01-01T05:44:35.635Z,7.63
2023-01-01T05:47:03.500Z,3.87
2023-01-01T05:49:31.380Z,5.87
2023-01-01T05:51:59.295Z,9.03
2023-01-01T05:54:27.174Z,7.60
2023-01-01T05:56:55.021Z,9.53
2023-01-01T05:59:22.920Z,7.70
2023-01-01T06:01:52.198Z,6.97
2023-01-01T06:04:20.255Z,4.00
2023-01-01T06:06:48.159Z,9.73
2023-01-01T06:09:16.015Z,6.00
2023-01-01T06:11:43.895Z,8.07
2023-01-01T06:14:11.847Z,6.17
2023-01-01T06:16:39.793Z,8.80
2023-01-01T06:19:09.075Z,3.23
2023-01-01T06:21:36.955Z,10.37
2023-01-01T06:24:05.542Z,5.50
2023-01-01T06:26:34.488Z,9.97
2023-01-01T06:29:03.744Z,8.20
2023-01-01T06:31:37.041Z,5.37
2023-01-01T06:34:10.169Z,6.40
2023-01-01T06:36:38.059Z,7.70
2023-01-01T06:39:06.154Z,6.03
2023-01-01T06:41:34.015Z,5.43
2023-01-01T06:44:02.407Z,9.50
2023-01-01T06:46:31.679Z,10.33
2023-01-01T06:49:01.449Z,6.53
2023-01-01T06:51:32.835Z,8.63
2023-01-01T06:54:02.480Z,6.10
2023-01-01T06:56:30.526Z,6.47
2023-01-01T06:58:59.013Z,10.10
2023-01-01T07:01:29.016Z,6.67
2023-01-01T07:03:58.878Z,9.40
2023-01-01T07:06:27.617Z,7.20
2023-01-01T07:08:56.917Z,10.43
2023-01-01T07:11:25.091Z,7.67
2023-01-01T07:13:53.052Z,11.20
2023-01-01T07:16:21.005Z,12.43
2023-01-01T07:18:50.630Z,7.87
2023-01-01T07:21:30.577Z,6.83
2023-01-01T07:24:01.232Z,9.17
2023-01-01T07:26:30.710Z,8.23
2023-01-01T07:29:06.429Z,11.60
2023-01-01T07:31:36.515Z,8.60
2023-01-01T07:34:04.608Z,8.90
2023-01-01T07:36:32.635Z,14.13
2023-01-01T07:39:01.913Z,8.73
2023-01-01T07:41:29.822Z,8.00
2023-01-01T07:43:57.689Z,7.40
2023-01-01T07:46:25.652Z,9.80
2023-01-01T07:48:53.558Z,7.67
2023-01-01T07:51:21.377Z,6.47
2023-01-01T07:53:49.342Z,4.30
2023-01-01T07:56:18.906Z,7.07
2023-01-01T07:58:46.910Z,7.80
2023-01-01T08:01:15.678Z,8.13
2023-01-01T08:03:43.858Z,8.43
2023-01-01T08:06:13.866Z,8.23
2023-01-01T08:08:41.994Z,7.47
2023-01-01T08:11:10.220Z,6.97
2023-01-01T08:13:39.460Z,10.67
2023-01-01T08:16:08.685Z,7.53
2023-01-01T08:18:36.704Z,8.53
2023-01-01T08:21:05.782Z,9.97
2023-01-01T08:23:33.741Z,7.90
2023-01-01T08:26:02.611Z,7.53
2023-01-01T08:28:31.557Z,10.17
2023-01-01T08:31:01.257Z,9.53
2023-01-01T08:33:29.338Z,9.80
2023-01-01T08:35:57.292Z,5.20
2023-01-01T08:38:25.380Z,7.53
2023-01-01T08:40:53.515Z,9.53
2023-01-01T08:43:21.369Z,10.23
2023-01-01T08:45:49.287Z,9.77
2023-01-01T08:48:18.516Z,7.97
2023-01-01T08:50:46.342Z,8.10
2023-01-01T08:53:14.220Z,9.50
2023-01-01T08:55:42.045Z,8.53
2023-01-01T08:58:09.900Z,11.10
2023-01-01T09:00:37.904Z,7.90
2023-01-01T09:03:05.967Z,5.83
2023-01-01T09:05:35.276Z,6.17
2023-01-01T09:08:03.159Z,7.57
2023-01-01T09:10:31.403Z,9.23
2023-01-01T09:12:59.297Z,7.50
2023-01-01T09:15:27.223Z,8.97
2023-01-01T09:17:55.159Z,5.00
2023-01-01T09:20:23.073Z,8.43
2023-01-01T09:22:52.319Z,8.50
2023-01-01T09:25:20.583Z,11.57
2023-01-01T09:27:48.439Z,7.70
2023-01-01T09:30:16.330Z,8.13
2023-01-01T09:32:44.214Z,6.57
2023-01-01T09:35:12.059Z,9.30
2023-01-01T09:37:39.939Z,7.20
2023-01-01T09:40:19.182Z,7.23
2023-01-01T09:42:51.680Z,5.80
2023-01-01T09:45:24.817Z,7.10
2023-01-01T09:47:56.256Z,6.33
2023-01-01T09:50:28.448Z,8.10
2023-01-01T09:52:58.863Z,6.90
2023-01-01T09:55:35.343Z,7.80
2023-01-01T09:58:03.268Z,7.13
2023-01-01T10:00:35.717Z,4.23
2023-01-01T10:03:36.225Z,10.20
2023-01-01T10:06:16.419Z,5.93
2023-01-01T10:09:08.899Z,5.27
2023-01-01T10:11:46.557Z,8.87
2023-01-01T10:14:23.148Z,8.10
2023-01-01T10:16:55.606Z,6.40
2023-01-01T10:19:29.447Z,7.70
2023-01-01T10:22:02.283Z,9.73
2023-01-01T10:24:38.534Z,6.43
2023-01-01T10:27:08.432Z,4.83
2023-01-01T10:29:45.093Z,5.27
2023-01-01T10:32:22.219Z,8.37
2023-01-01T10:34:51.600Z,8.47
2023-01-01T10:37:20.144Z,6.03
2023-01-01T10:39:48.833Z,6.43
2023-01-01T10:42:18.383Z,4.87
2023-01-01T10:44:47.124Z,7.60
2023-01-01T10:47:25.858Z,5.67
2023-01-01T10:50:02.633Z,8.37
2023-01-01T10:52:36.604Z,8.93
2023-01-01T10:55:06.465Z,7.43
2023-01-01T10:57:38.752Z,6.27
2023-01-01T11:00:22.986Z,5.33
2023-01-01T11:03:15.367Z,8.77
2023-01-01T11:06:02.804Z,5.07
2023-01-01T11:08:32.606Z,8.23
2023-01-01T11:11:02.251Z,7.90
2023-01-01T11:13:33.396Z,7.13
2023-01-01T11:16:01.811Z,8.73
2023-01-01T11:18:35.858Z,7.77
2023-01-01T11:21:06.252Z,7.03
2023-01-01T11:23:36.491Z,5.23
2023-01-01T11:26:07.842Z,8.20
2023-01-01T11:28:37.471Z,7.63
2023-01-01T11:31:16.995Z,5.30
2023-01-01T11:33:48.800Z,8.73
2023-01-01T11:36:23.779Z,10.23
2023-01-01T11:39:04.816Z,8.23
2023-01-01T11:41:43.600Z,6.97
2023-01-01T11:44:23.547Z,9.57
2023-01-01T11:46:51.575Z,5.70
2023-01-01T11:49:24.729Z,6.00
2023-01-01T11:51:52.723Z,8.63
2023-01-01T11:54:32.715Z,7.33
2023-01-01T11:57:05.354Z,9.27
2023-01-01T11:59:41.819Z,7.10
2023-01-01T12:02:15.747Z,8.30
2023-01-01T12:04:49.440Z,7.97
2023-01-01T12:07:20.110Z,7.40
2023-01-01T12:09:55.540Z,7.43
2023-01-01T12:12:29.163Z,7.50
2023-01-01T12:15:03.507Z,9.10
2023-01-01T12:17:38.753Z,6.93
2023-01-01T12:20:13.817Z,7.17
2023-01-01T12:22:42.496Z,11.40
2023-01-01T12:25:14.990Z,6.93
2023-01-01T12:27:56.387Z,6.10
2023-01-01T12:30:31.473Z,5.27
2023-01-01T12:33:30.654Z,8.70
2023-01-01T12:36:08.584Z,10.07
2023-01-01T12:38:57.782Z,8.00
2023-01-01T12:41:33.165Z,9.17
2023-01-01T12:44:10.178Z,6.57
2023-01-01T12:46:48.513Z,6.53
2023-01-01T12:49:44.082Z,5.50
2023-01-01T12:52:22.349Z,10.00
2023-01-01T12:55:36.954Z,6.87
2023-01-01T12:58:11.969Z,10.93
2023-01-01T13:00:41.052Z,9.27
2023-01-01T13:03:18.772Z,8.83
2023-01-01T13:05:51.080Z,6.77
2023-01-01T13:08:19.025Z,5.90
2023-01-01T13:10:49.633Z,10.20
2023-01-01T13:13:18.831Z,6.90
2023-01-01T13:15:52.645Z,10.03
2023-01-01T13:18:25.646Z,11.80
2023-01-01T13:20:59.988Z,9.23
2023-01-01T13:23:53.330Z,9.57
2023-01-01T13:26:37.878Z,10.60
2023-01-01T13:29:33.343Z,7.37
2023-01-01T13:32:04.214Z,12.90
2023-01-01T13:35:05.664Z,9.10
2023-01-01T13:37:45.488Z,7.27
2023-01-01T13:40:50.909Z,11.90
2023-01-01T13:43:36.676Z,12.40
2023-01-01T13:46:14.806Z,7.50
2023-01-01T13:49:02.152Z,11.47
2023-01-01T13:52:05.710Z,8.50
2023-01-01T13:55:08.976Z,7.97
2023-01-01T13:58:00.531Z,8.00
2023-01-01T14:00:36.706Z,9.20
2023-01-01T14:03:12.659Z,8.93
2023-01-01T14:05:45.648Z,9.60
2023-01-01T14:08:29.676Z,7.67
2023-01-01T14:11:00.679Z,8.07
2023-01-01T14:13:30.213Z,7.80
2023-01-01T14:16:01.072Z,10.57
2023-01-01T14:18:34.686Z,9.13
2023-01-01T14:21:03.470Z,8.60
2023-01-01T14:23:34.355Z,12.33
2023-01-01T14:26:07.906Z,11.37
2023-01-01T14:28:36.920Z,6.33
2023-01-01T14:31:10.983Z,9.07
2023-01-01T14:33:39.805Z,9.87
2023-01-01T14:36:17.424Z,7.07
2023-01-01T14:38:46.984Z,14.57
2023-01-01T14:41:21.167Z,7.90
2023-01-01T14:43:51.799Z,8.37
2023-01-01T14:46:22.373Z,11.83
2023-01-01T14:48:52.697Z,9.40
2023-01-01T14:51:23.727Z,11.90
2023-01-01T14:53:53.174Z,11.20
2023-01-01T14:56:28.532Z,9.33
2023-01-01T14:59:03.749Z,8.53
2023-01-01T15:01:31.750Z,7.37
2023-01-01T15:04:01.777Z,12.17
2023-01-01T15:06:30.839Z,13.47
2023-01-01T15:08:58.847Z,7.97
2023-01-01T15:11:29.372Z,10.17
2023-01-01T15:14:00.294Z,8.47
2023-01-01T15:16:33.312Z,13.83
2023-01-01T15:19:19.437Z,8.10
2023-01-01T15:21:47.605Z,6.97
2023-01-01T15:24:20.271Z,8.07
2023-01-01T15:26:53.649Z,8.57
2023-01-01T15:29:28.525Z,8.27
2023-01-01T15:31:59.676Z,11.30
2023-01-01T15:34:32.220Z,16.77
2023-01-01T15:37:10.275Z,9.77
2023-01-01T15:39:47.362Z,5.07
2023-01-01T15:42:36.022Z,7.63
2023-01-01T15:45:21.868Z,8.63
2023-01-01T15:47:50.624Z,6.87
2023-01-01T15:50:24.371Z,8.87
2023-01-01T15:52:56.166Z,12.57
2023-01-01T15:55:26.553Z,7.03
2023-01-01T15:57:56.244Z,6.77
2023-01-01T16:00:26.906Z,8.13
2023-01-01T16:02:59.595Z,10.00
2023-01-01T16:05:28.837Z,7.70
2023-01-01T16:08:01.817Z,8.33
2023-01-01T16:10:29.758Z,11.53
2023-01-01T16:12:59.097Z,10.03
2023-01-01T16:15:27.617Z,9.37
2023-01-01T16:17:56.117Z,7.63
2023-01-01T16:20:27.653Z,29.90
2023-01-01T16:22:55.466Z,15.27
2023-01-01T16:25:23.894Z,9.30
2023-01-01T16:27:51.811Z,9.50
2023-01-01T16:30:25.879Z,12.70
2023-01-01T16:32:53.894Z,12.30
2023-01-01T16:35:21.995Z,10.40
2023-01-01T16:37:49.853Z,10.43
2023-01-01T16:40:18.141Z,8.97
2023-01-01T16:42:46.047Z,5.97
2023-01-01T16:45:18.657Z,14.00
2023-01-01T16:47:48.452Z,8.53
2023-01-01T16:50:18.649Z,8.70
2023-01-01T16:52:46.530Z,8.53
2023-01-01T16:55:15.045Z,9.70
2023-01-01T16:57:43.414Z,7.00
2023-01-01T17:00:13.795Z,11.47
2023-01-01T17:02:42.247Z,7.07
2023-01-01T17:05:12.482Z,9.03
2023-01-01T17:07:40.343Z,8.17
2023-01-01T17:10:09.027Z,7.23
2023-01-01T17:12:36.961Z,9.30
2023-01-01T17:15:05.708Z,8.43
2023-01-01T17:17:33.611Z,6.53
2023-01-01T17:20:01.579Z,7.80
2023-01-01T17:22:34.392Z,11.07
2023-01-01T17:25:02.674Z,8.00
2023-01-01T17:27:30.581Z,9.10
2023-01-01T17:29:58.479Z,79.03
2023-01-01T17:32:26.422Z,20.83
2023-01-01T17:34:54.331Z,9.37
2023-01-01T17:37:22.192Z,7.87
2023-01-01T17:39:51.390Z,8.90
2023-01-01T17:42:19.338Z,9.23
2023-01-01T17:44:47.473Z,6.43
2023-01-01T17:47:15.312Z,8.57
2023-01-01T17:49:43.558Z,7.60
2023-01-01T17:52:11.784Z,8.77
2023-01-01T17:54:39.703Z,11.37
2023-01-01T17:57:08.972Z,7.80
2023-01-01T17:59:36.874Z,8.13
2023-01-01T18:02:05.902Z,6.73
2023-01-01T18:04:34.009Z,8.07
2023-01-01T18:07:06.372Z,9.37
2023-01-01T18:09:36.749Z,9.37
2023-01-01T18:12:05.441Z,9.30
2023-01-01T18:14:34.761Z,8.43
2023-01-01T18:17:02.636Z,7.37
2023-01-01T18:19:32.315Z,4.93
2023-01-01T18:22:00.192Z,7.77
2023-01-01T18:24:28.247Z,9.47
2023-01-01T18:26:56.108Z,4.23
2023-01-01T18:29:24.038Z,3.83
2023-01-01T18:31:53.251Z,6.30
2023-01-01T18:34:21.257Z,4.87
2023-01-01T18:36:49.215Z,3.80
2023-01-01T18:39:22.220Z,3.37
2023-01-01T18:42:18.170Z,5.43
2023-01-01T18:44:46.067Z,7.17
2023-01-01T18:47:17.427Z,3.10
2023-01-01T18:49:49.498Z,4.93
2023-01-01T18:52:25.821Z,7.00
2023-01-01T18:55:03.139Z,9.03
2023-01-01T18:57:31.132Z,7.33
2023-01-01T19:00:00.060Z,7.87
2023-01-01T19:02:38.968Z,4.97
2023-01-01T19:05:19.364Z,6.67
2023-01-01T19:07:52.400Z,5.33
2023-01-01T19:10:20.331Z,5.73
2023-01-01T19:12:49.664Z,9.43
2023-01-01T19:15:20.740Z,7.17
2023-01-01T19:17:50.829Z,8.00
2023-01-01T19:20:22.501Z,6.90
2023-01-01T19:22:50.377Z,7.00
2023-01-01T19:25:42.030Z,5.63
2023-01-01T19:28:28.948Z,8.17
2023-01-01T19:30:56.976Z,7.97
2023-01-01T19:33:26.334Z,10.73
2023-01-01T19:35:54.309Z,10.53
2023-01-01T19:38:22.403Z,8.70
2023-01-01T19:40:50.376Z,8.60
2023-01-01T19:43:18.264Z,7.03
2023-01-01T19:45:46.119Z,6.17
2023-01-01T19:48:14.091Z,8.10
2023-01-01T19:50:43.291Z,10.03
2023-01-01T19:53:11.197Z,8.13
2023-01-01T19:55:40.113Z,7.83
2023-01-01T19:58:08.012Z,9.93
2023-01-01T20:00:35.964Z,9.47
2023-01-01T20:03:34.517Z,6.97
2023-01-01T20:05:53.123Z,7.13
2023-01-01T20:08:21.432Z,7.33
2023-01-01T20:10:49.312Z,8.83
2023-01-01T20:13:17.152Z,7.10
2023-01-01T20:15:47.042Z,6.93
2023-01-01T20:18:15.223Z,6.10
2023-01-01T20:21:03.646Z,5.93
2023-01-01T20:23:32.984Z,7.53
2023-01-01T20:26:00.966Z,7.93
2023-01-01T20:28:46.381Z,6.03
2023-01-01T20:31:14.228Z,5.97
2023-01-01T20:33:42.124Z,5.13
2023-01-01T20:36:27.540Z,6.20
2023-01-01T20:38:56.715Z,6.03
2023-01-01T20:41:24.580Z,6.63
2023-01-01T20:43:52.992Z,6.87
2023-01-01T20:46:21.265Z,7.33
2023-01-01T20:48:49.431Z,5.87
2023-01-01T20:51:17.318Z,5.87
2023-01-01T20:53:45.176Z,4.77
2023-01-01T20:56:14.559Z,6.20
2023-01-01T20:58:48.428Z,4.97
2023-01-01T21:01:18.157Z,4.30
2023-01-01T21:03:46.308Z,5.37
2023-01-01T21:06:18.453Z,5.70
2023-01-01T21:08:49.911Z,4.10
2023-01-01T21:11:19.307Z,7.33
2023-01-01T21:13:47.419Z,5.93
2023-01-01T21:16:18.250Z,5.37
2023-01-01T21:18:47.042Z,3.70
2023-01-01T21:21:19.632Z,3.30
2023-01-01T21:23:48.340Z,3.97
2023-01-01T21:26:21.987Z,5.33
2023-01-01T21:28:49.909Z,4.87
2023-01-01T21:31:18.069Z,4.33
2023-01-01T21:33:47.055Z,2.63
2023-01-01T21:36:19.147Z,4.10
2023-01-01T21:38:48.285Z,3.23
2023-01-01T21:41:23.642Z,3.40
2023-01-01T21:43:54.300Z,3.30
2023-01-01T21:46:44.398Z,3.57
2023-01-01T21:49:18.326Z,5.30
2023-01-01T21:51:51.369Z,3.10
2023-01-01T21:54:24.519Z,4.33
2023-01-01T21:56:58.897Z,3.97
2023-01-01T21:59:38.559Z,4.90
2023-01-01T22:02:32.704Z,4.00
2023-01-01T22:05:02.087Z,3.03
2023-01-01T22:10:24.991Z,4.07
2023-01-01T22:12:58.349Z,2.87
2023-01-01T22:15:37.552Z,6.37
2023-01-01T22:18:23.787Z,4.83
2023-01-01T22:20:52.438Z,4.20
2023-01-01T22:23:35.498Z,3.93
2023-01-01T22:26:05.985Z,5.57
2023-01-01T22:28:43.618Z,4.00
2023-01-01T22:31:17.797Z,4.10
2023-01-01T22:33:48.035Z,3.53
2023-01-01T22:36:18.997Z,4.93
2023-01-01T22:38:46.957Z,7.37
2023-01-01T22:41:15.929Z,4.60
2023-01-01T22:43:47.743Z,4.97
2023-01-01T22:46:27.162Z,8.83
2023-01-01T22:48:58.634Z,3.13
2023-01-01T22:51:29.907Z,4.53
2023-01-01T22:53:57.776Z,4.53
2023-01-01T22:56:25.876Z,4.70
2023-01-01T22:58:57.558Z,3.10
2023-01-01T23:01:25.831Z,3.37
2023-01-01T23:03:54.016Z,2.77
2023-01-01T23:06:22.895Z,5.07
2023-01-01T23:08:51.304Z,5.10
2023-01-01T23:11:19.471Z,3.43
2023-01-01T23:14:07.427Z,5.00
2023-01-01T23:16:37.455Z,4.83
2023-01-01T23:19:06.097Z,3.17
2023-01-01T23:21:36.292Z,4.20
2023-01-01T23:24:07.331Z,3.93
2023-01-01T23:26:35.357Z,5.27
2023-01-01T23:29:04.276Z,7.73
2023-01-01T23:31:33.385Z,4.83
2023-01-01T23:34:03.173Z,3.53
2023-01-01T23:36:31.718Z,3.23
2023-01-01T23:38:59.787Z,8.03
2023-01-01T23:41:27.743Z,5.97
2023-01-01T23:43:55.647Z,5.03
2023-01-01T23:46:23.765Z,5.53
2023-01-01T23:48:53.206Z,5.83
2023-01-01T23:51:22.456Z,3.73
2023-01-01T23:53:50.325Z,4.60
2023-01-01T23:56:18.248Z,4.90
2023-01-01T23:58:46.128Z,6.10
